createdAt,value
2018-07-20T00:01:50.042Z,52.20
2018-07-20T00:04:19.641Z,51.08
2018-07-20T00:06:49.241Z,51.41
2018-07-20T00:09:18.690Z,51.65
2018-07-20T00:11:48.051Z,52.92
2018-07-20T00:14:17.503Z,52.31
2018-07-20T00:16:46.917Z,51.76
2018-07-20T00:19:16.345Z,51.55
2018-07-20T00:21:45.757Z,51.70
2018-07-20T00:24:15.153Z,51.59
2018-07-20T00:26:44.568Z,52.31
2018-07-20T00:29:13.948Z,52.33
2018-07-20T00:31:43.365Z,52.77
2018-07-20T00:34:12.857Z,53.05
2018-07-20T00:36:42.221Z,53.45
2018-07-20T00:39:12.122Z,53.44
2018-07-20T00:41:41.794Z,53.29
2018-07-20T00:44:11.153Z,53.90
2018-07-20T00:46:40.486Z,54.08
2018-07-20T00:49:09.892Z,53.84
2018-07-20T00:51:39.529Z,53.81
2018-07-20T00:54:08.884Z,53.03
2018-07-20T00:56:38.240Z,53.63
2018-07-20T00:59:07.868Z,53.52
2018-07-20T01:01:37.294Z,54.38
2018-07-20T01:04:06.684Z,53.65
2018-07-20T01:06:36.097Z,55.44
2018-07-20T01:09:07.706Z,54.69
2018-07-20T01:11:37.400Z,54.69
2018-07-20T01:14:06.831Z,55.29
2018-07-20T01:16:36.585Z,54.98
2018-07-20T01:19:06.037Z,54.38
2018-07-20T01:21:35.483Z,54.89
2018-07-20T01:24:05.773Z,54.58
2018-07-20T01:26:35.195Z,54.24
2018-07-20T01:29:05.313Z,54.91
2018-07-20T01:31:34.760Z,55.46
2018-07-20T01:34:05.229Z,55.41
2018-07-20T01:36:34.690Z,54.94
2018-07-20T01:39:05.390Z,56.15
2018-07-20T01:41:34.822Z,54.93
2018-07-20T01:44:05.047Z,55.20
2018-07-20T01:46:34.419Z,55.50
2018-07-20T01:49:03.923Z,55.46
2018-07-20T01:51:33.918Z,56.08
2018-07-20T01:54:03.340Z,55.27
2018-07-20T01:56:32.724Z,55.40
2018-07-20T01:59:02.143Z,54.81
2018-07-20T02:01:31.608Z,55.23
2018-07-20T02:04:01.075Z,55.19
2018-07-20T02:06:30.492Z,54.47
2018-07-20T02:08:59.871Z,54.52
2018-07-20T02:11:29.269Z,54.98
2018-07-20T02:13:58.780Z,55.43
2018-07-20T02:16:28.294Z,54.94
2018-07-20T02:18:57.799Z,55.36
2018-07-20T02:21:27.610Z,56.25
2018-07-20T02:23:57.047Z,56.11
2018-07-20T02:26:26.449Z,55.68
2018-07-20T02:28:55.871Z,55.99
2018-07-20T02:31:25.383Z,57.15
2018-07-20T02:33:54.758Z,57.30
2018-07-20T02:36:24.220Z,56.94
2018-07-20T02:38:53.590Z,56.62
2018-07-20T02:41:23.201Z,56.23
2018-07-20T02:43:52.625Z,56.96
2018-07-20T02:46:22.136Z,56.32
2018-07-20T02:48:52.363Z,56.79
2018-07-20T02:51:21.751Z,56.81
2018-07-20T02:53:51.097Z,56.90
2018-07-20T02:56:20.614Z,57.91
2018-07-20T02:58:49.959Z,58.58
2018-07-20T03:01:20.099Z,58.97
2018-07-20T03:03:49.455Z,59.03
2018-07-20T03:06:18.964Z,57.60
2018-07-20T03:08:48.334Z,58.94
2018-07-20T03:11:17.701Z,57.90
2018-07-20T03:13:46.881Z,57.12
2018-07-20T03:16:16.274Z,57.79
2018-07-20T03:18:45.691Z,57.83
2018-07-20T03:21:15.086Z,57.97
2018-07-20T03:23:44.443Z,57.69
2018-07-20T03:26:13.873Z,58.56
2018-07-20T03:28:43.254Z,59.61
2018-07-20T03:31:12.681Z,59.41
2018-07-20T03:33:42.015Z,59.36
2018-07-20T03:36:11.400Z,59.79
2018-07-20T03:38:40.800Z,59.93
2018-07-20T03:41:10.195Z,60.26
2018-07-20T03:43:39.529Z,60.26
2018-07-20T03:46:08.865Z,59.47
2018-07-20T03:48:38.236Z,59.88
2018-07-20T03:51:07.850Z,60.47
2018-07-20T03:53:37.233Z,59.45
2018-07-20T03:56:06.825Z,59.21
2018-07-20T03:58:36.201Z,58.53
2018-07-20T04:01:05.589Z,58.63
2018-07-20T04:03:36.039Z,59.35
2018-07-20T04:06:05.350Z,58.22
2018-07-20T04:08:34.726Z,58.78
2018-07-20T04:11:04.082Z,59.12
2018-07-20T04:13:33.493Z,59.45
2018-07-20T04:16:03.278Z,59.63
2018-07-20T04:18:32.672Z,59.51
2018-07-20T04:21:02.073Z,60.81
2018-07-20T04:23:31.557Z,60.62
2018-07-20T04:26:01.290Z,60.55
2018-07-20T04:28:30.717Z,59.11
2018-07-20T04:31:00.168Z,59.35
2018-07-20T04:33:29.640Z,59.92
2018-07-20T04:36:00.285Z,59.50
2018-07-20T04:38:29.722Z,59.01
2018-07-20T04:40:59.205Z,59.30
2018-07-20T04:43:28.737Z,58.85
2018-07-20T04:45:58.172Z,58.89
2018-07-20T04:48:27.638Z,59.62
2018-07-20T04:50:56.766Z,62.30
2018-07-20T04:53:26.331Z,61.16
2018-07-20T04:55:55.974Z,61.00
2018-07-20T04:58:25.546Z,60.78
2018-07-20T05:00:55.689Z,61.98
2018-07-20T05:03:25.092Z,59.11
2018-07-20T05:05:54.553Z,60.00
2018-07-20T05:08:24.290Z,60.63
2018-07-20T05:10:53.705Z,60.56
2018-07-20T05:13:23.086Z,60.75
2018-07-20T05:15:52.589Z,59.11
2018-07-20T05:18:21.937Z,59.89
2018-07-20T05:20:51.341Z,60.24
2018-07-20T05:23:20.796Z,61.66
2018-07-20T05:25:50.207Z,59.21
2018-07-20T05:28:20.659Z,61.73
2018-07-20T05:30:50.109Z,59.99
2018-07-20T05:33:19.854Z,59.92
2018-07-20T05:35:50.338Z,60.84
2018-07-20T05:38:19.716Z,60.37
2018-07-20T05:40:49.191Z,59.05
2018-07-20T05:43:19.569Z,57.81
2018-07-20T05:45:48.965Z,57.70
2018-07-20T05:48:18.111Z,58.92
2018-07-20T05:50:47.598Z,58.39
2018-07-20T05:53:17.054Z,57.39
2018-07-20T05:55:46.497Z,57.92
2018-07-20T05:58:15.929Z,56.38
2018-07-20T06:00:45.332Z,57.07
2018-07-20T06:03:14.839Z,56.56
2018-07-20T06:05:44.351Z,56.22
2018-07-20T06:08:13.886Z,56.54
2018-07-20T06:10:43.733Z,54.91
2018-07-20T06:13:13.113Z,56.11
2018-07-20T06:15:42.553Z,54.40
2018-07-20T06:18:12.023Z,54.69
2018-07-20T06:20:41.479Z,52.85
2018-07-20T06:26:10.730Z,54.60
2018-07-20T06:28:40.081Z,53.94
2018-07-20T06:31:09.450Z,54.05
2018-07-20T06:33:39.012Z,55.10
2018-07-20T06:36:08.481Z,55.05
2018-07-20T06:38:37.814Z,53.25
2018-07-20T06:41:07.184Z,53.22
2018-07-20T06:43:36.604Z,54.60
2018-07-20T06:46:06.007Z,52.61
2018-07-20T06:48:35.401Z,52.47
2018-07-20T06:51:04.785Z,52.03
2018-07-20T06:53:34.177Z,52.99
2018-07-20T06:56:03.573Z,53.27
2018-07-20T06:58:33.067Z,52.35
2018-07-20T07:01:02.401Z,52.14
2018-07-20T07:03:31.754Z,50.63
2018-07-20T07:06:01.173Z,52.17
2018-07-20T07:08:30.631Z,50.90
2018-07-20T07:11:00.070Z,51.52
2018-07-20T07:13:29.524Z,52.91
2018-07-20T07:15:58.957Z,51.79
2018-07-20T07:18:28.349Z,52.24
2018-07-20T07:20:57.815Z,51.50
2018-07-20T07:23:27.251Z,52.43
2018-07-20T07:25:56.765Z,52.41
2018-07-20T07:28:26.258Z,51.25
2018-07-20T07:30:56.438Z,52.03
2018-07-20T07:33:26.300Z,52.18
2018-07-20T07:35:56.808Z,53.58
2018-07-20T07:38:26.361Z,51.03
2018-07-20T07:40:55.844Z,50.17
2018-07-20T07:43:25.417Z,50.90
2018-07-20T07:45:54.885Z,52.31
2018-07-20T07:48:24.440Z,50.41
2018-07-20T07:50:54.169Z,51.57
2018-07-20T07:53:23.586Z,51.99
2018-07-20T07:55:52.968Z,51.32
2018-07-20T07:58:22.468Z,51.46
2018-07-20T08:00:51.870Z,51.68
2018-07-20T08:03:21.235Z,50.17
2018-07-20T08:05:50.614Z,49.52
2018-07-20T08:08:19.963Z,52.51
2018-07-20T08:10:49.350Z,51.24
2018-07-20T08:13:18.739Z,51.08
2018-07-20T08:15:48.314Z,49.29
2018-07-20T08:18:17.823Z,50.36
2018-07-20T08:20:47.550Z,50.93
2018-07-20T08:23:16.956Z,48.80
2018-07-20T08:25:46.362Z,49.64
2018-07-20T08:28:15.822Z,51.16
2018-07-20T08:30:48.546Z,50.34
2018-07-20T08:33:17.700Z,51.28
2018-07-20T08:35:47.144Z,48.88
2018-07-20T08:38:16.506Z,47.99
2018-07-20T08:40:45.942Z,47.36
2018-07-20T08:43:15.298Z,45.45
2018-07-20T08:45:44.685Z,47.54
2018-07-20T08:48:14.105Z,46.62
2018-07-20T08:50:44.480Z,46.66
2018-07-20T08:53:14.083Z,45.15
2018-07-20T08:55:43.587Z,45.37
2018-07-20T08:58:13.202Z,47.18
2018-07-20T09:00:42.553Z,45.70
2018-07-20T09:03:11.950Z,45.14
2018-07-20T09:05:41.314Z,43.18
2018-07-20T09:08:11.648Z,43.21
2018-07-20T09:10:41.125Z,43.52
2018-07-20T09:13:10.603Z,45.10
2018-07-20T09:15:39.983Z,42.71
2018-07-20T09:18:09.532Z,42.22
2018-07-20T09:20:38.964Z,40.72
2018-07-20T09:23:08.367Z,41.78
2018-07-20T09:25:37.949Z,43.92
2018-07-20T09:28:07.334Z,45.29
2018-07-20T09:30:36.719Z,43.23
2018-07-20T09:33:06.889Z,43.48
2018-07-20T09:35:36.699Z,44.05
2018-07-20T09:38:06.225Z,41.34
2018-07-20T09:40:35.613Z,41.76
2018-07-20T09:43:05.028Z,43.10
2018-07-20T09:45:34.349Z,43.87
2018-07-20T09:48:04.440Z,43.41
2018-07-20T09:50:33.814Z,42.87
2018-07-20T09:53:03.186Z,45.41
2018-07-20T09:55:32.541Z,42.82
2018-07-20T09:58:01.692Z,42.04
2018-07-20T10:00:36.351Z,40.54
2018-07-20T10:03:05.990Z,41.56
2018-07-20T10:05:35.369Z,41.00
2018-07-20T10:08:04.756Z,41.80
2018-07-20T10:10:34.154Z,39.60
2018-07-20T10:13:03.510Z,37.51
2018-07-20T10:15:32.992Z,39.07
2018-07-20T10:18:02.315Z,40.78
2018-07-20T10:20:31.887Z,33.30
2018-07-20T10:23:01.848Z,35.62
2018-07-20T10:25:31.355Z,37.37
2018-07-20T10:28:00.741Z,38.56
2018-07-20T10:30:30.334Z,38.66
2018-07-20T10:32:59.706Z,38.56
2018-07-20T10:35:29.187Z,39.73
2018-07-20T10:37:58.653Z,40.25
2018-07-20T10:40:28.673Z,39.49
2018-07-20T10:42:59.328Z,38.50
2018-07-20T10:45:28.964Z,41.30
2018-07-20T10:47:58.445Z,41.06
2018-07-20T10:50:27.945Z,39.45
2018-07-20T10:52:57.392Z,37.73
2018-07-20T10:55:26.836Z,37.57
2018-07-20T10:57:56.282Z,40.33
2018-07-20T11:00:27.090Z,38.23
2018-07-20T11:02:56.595Z,35.96
2018-07-20T11:05:26.075Z,38.20
2018-07-20T11:07:57.425Z,36.21
2018-07-20T11:10:27.153Z,36.56
2018-07-20T11:12:56.777Z,34.63
2018-07-20T11:15:28.784Z,35.68
2018-07-20T11:17:58.239Z,36.49
2018-07-20T11:20:27.716Z,38.32
2018-07-20T11:22:57.456Z,35.79
2018-07-20T11:25:27.126Z,37.41
2018-07-20T11:27:56.840Z,33.20
2018-07-20T11:30:26.252Z,32.52
2018-07-20T11:32:55.707Z,34.71
2018-07-20T11:35:25.147Z,37.78
2018-07-20T11:37:56.764Z,36.09
2018-07-20T11:40:26.179Z,34.98
2018-07-20T11:42:55.668Z,35.74
2018-07-20T11:45:25.359Z,34.33
2018-07-20T11:47:54.841Z,36.39
2018-07-20T11:50:24.293Z,35.29
2018-07-20T11:52:53.688Z,34.99
2018-07-20T11:55:23.193Z,35.72
2018-07-20T11:57:53.115Z,36.24
2018-07-20T12:00:22.655Z,36.58
2018-07-20T12:02:52.074Z,35.00
2018-07-20T12:05:21.565Z,36.63
2018-07-20T12:07:51.147Z,36.28
2018-07-20T12:10:20.471Z,35.13
2018-07-20T12:12:49.927Z,32.16
2018-07-20T12:15:19.289Z,33.51
2018-07-20T12:17:48.449Z,36.00
2018-07-20T12:20:17.805Z,36.18
2018-07-20T12:22:47.207Z,36.29
2018-07-20T12:25:16.610Z,35.60
2018-07-20T12:27:46.031Z,36.88
2018-07-20T12:30:15.497Z,37.72
2018-07-20T12:32:45.179Z,39.08
2018-07-20T12:35:14.946Z,34.99
2018-07-20T12:37:44.514Z,33.79
2018-07-20T12:40:14.054Z,33.18
2018-07-20T12:42:43.483Z,36.58
2018-07-20T12:45:12.853Z,36.78
2018-07-20T12:47:42.258Z,34.03
2018-07-20T12:50:11.831Z,33.94
2018-07-20T12:52:41.200Z,35.91
2018-07-20T12:55:10.605Z,35.94
2018-07-20T12:57:40.005Z,33.17
2018-07-20T13:00:09.378Z,34.43
2018-07-20T13:02:38.753Z,34.88
2018-07-20T13:05:08.123Z,34.81
2018-07-20T13:07:37.583Z,35.01
2018-07-20T13:10:09.090Z,35.50
2018-07-20T13:12:38.458Z,34.72
2018-07-20T13:15:07.809Z,33.32
2018-07-20T13:17:37.285Z,35.89
2018-07-20T13:20:07.053Z,38.49
2018-07-20T13:22:36.469Z,37.00
2018-07-20T13:25:05.910Z,35.89
2018-07-20T13:27:35.362Z,36.69
2018-07-20T13:30:06.178Z,36.56
2018-07-20T13:32:35.573Z,34.71
2018-07-20T13:35:06.375Z,35.25
2018-07-20T13:37:35.947Z,37.34
2018-07-20T13:40:05.769Z,37.54
2018-07-20T13:42:35.172Z,37.13
2018-07-20T13:45:04.710Z,36.33
2018-07-20T13:47:33.993Z,37.97
2018-07-20T13:50:03.964Z,37.05
2018-07-20T13:52:33.542Z,35.15
2018-07-20T13:55:02.883Z,34.58
2018-07-20T13:57:32.215Z,36.60
2018-07-20T14:00:01.601Z,36.74
2018-07-20T14:02:30.976Z,36.02
2018-07-20T14:05:00.357Z,35.88
2018-07-20T14:07:29.762Z,36.79
2018-07-20T14:09:59.177Z,37.88
2018-07-20T14:12:28.817Z,38.04
2018-07-20T14:14:58.285Z,36.77
2018-07-20T14:17:27.859Z,38.05
2018-07-20T14:19:57.270Z,37.89
2018-07-20T14:22:26.645Z,39.24
2018-07-20T14:24:56.106Z,38.65
2018-07-20T14:27:25.621Z,37.05
2018-07-20T14:29:55.875Z,37.35
2018-07-20T14:32:25.298Z,37.74
2018-07-20T14:34:55.744Z,38.28
2018-07-20T14:37:25.197Z,38.31
2018-07-20T14:39:54.717Z,39.48
2018-07-20T14:42:24.109Z,38.92
2018-07-20T14:44:56.392Z,38.54
2018-07-20T14:47:26.137Z,38.50
2018-07-20T14:49:55.592Z,38.49
2018-07-20T14:52:25.139Z,38.60
2018-07-20T14:54:54.633Z,37.38
2018-07-20T14:57:24.105Z,38.37
2018-07-20T14:59:55.343Z,38.61
2018-07-20T15:02:24.845Z,39.48
2018-07-20T15:04:54.186Z,39.23
2018-07-20T15:07:23.690Z,39.51
2018-07-20T15:09:53.079Z,39.76
2018-07-20T15:12:23.402Z,39.20
2018-07-20T15:14:52.767Z,39.19
2018-07-20T15:17:22.199Z,38.14
2018-07-20T15:19:51.542Z,39.86
2018-07-20T15:22:20.925Z,40.74
2018-07-20T15:24:50.349Z,39.15
2018-07-20T15:27:19.769Z,39.23
2018-07-20T15:29:49.125Z,40.45
2018-07-20T15:32:18.467Z,40.13
2018-07-20T15:34:47.799Z,39.57
2018-07-20T15:37:17.190Z,40.00
2018-07-20T15:39:46.695Z,40.03
2018-07-20T15:42:16.027Z,39.26
2018-07-20T15:44:45.507Z,38.98
2018-07-20T15:47:14.977Z,39.74
2018-07-20T15:49:44.457Z,38.74
2018-07-20T15:54:43.261Z,38.40
2018-07-20T15:57:12.582Z,39.27
2018-07-20T15:59:42.013Z,38.46
2018-07-20T16:02:11.361Z,38.22
2018-07-20T16:04:40.745Z,38.21
2018-07-20T16:07:10.208Z,38.11
2018-07-20T16:09:39.657Z,38.71
2018-07-20T16:12:09.046Z,39.08
2018-07-20T16:14:38.388Z,39.23
2018-07-20T16:17:07.792Z,40.02
2018-07-20T16:19:37.270Z,38.14
2018-07-20T16:22:06.739Z,38.10
2018-07-20T16:24:36.387Z,39.09
2018-07-20T16:27:06.097Z,39.26
2018-07-20T16:29:35.525Z,38.99
2018-07-20T16:32:04.888Z,39.00
2018-07-20T16:34:34.563Z,38.02
2018-07-20T16:37:03.962Z,39.24
2018-07-20T16:39:33.564Z,39.00
2018-07-20T16:42:02.957Z,38.30
2018-07-20T16:44:32.309Z,38.29
2018-07-20T16:47:01.710Z,39.28
2018-07-20T16:49:31.162Z,37.51
2018-07-20T16:52:00.619Z,38.09
2018-07-20T16:54:30.051Z,38.79
2018-07-20T16:56:59.510Z,39.16
2018-07-20T16:59:29.070Z,38.69
2018-07-20T17:01:58.533Z,38.51
2018-07-20T17:04:28.043Z,38.82
2018-07-20T17:06:57.480Z,38.36
2018-07-20T17:09:27.212Z,39.07
2018-07-20T17:11:56.609Z,38.49
2018-07-20T17:14:26.011Z,39.61
2018-07-20T17:16:55.364Z,38.85
2018-07-20T17:19:24.737Z,38.66
2018-07-20T17:21:54.138Z,39.41
2018-07-20T17:24:23.354Z,39.34
2018-07-20T17:26:52.736Z,39.28
2018-07-20T17:29:22.161Z,38.60
2018-07-20T17:31:51.601Z,38.97
2018-07-20T17:34:21.183Z,41.08
2018-07-20T17:36:50.585Z,40.02
2018-07-20T17:39:20.059Z,40.51
2018-07-20T17:41:49.557Z,41.24
2018-07-20T17:44:18.924Z,40.75
2018-07-20T17:46:48.322Z,41.55
2018-07-20T17:49:17.637Z,41.16
2018-07-20T17:51:47.067Z,40.16
2018-07-20T17:54:17.646Z,40.87
2018-07-20T17:56:47.160Z,40.92
2018-07-20T17:59:16.524Z,40.57
2018-07-20T18:01:45.961Z,41.53
2018-07-20T18:04:15.500Z,40.77
2018-07-20T18:06:45.099Z,40.87
2018-07-20T18:09:14.448Z,40.75
2018-07-20T18:11:43.866Z,41.23
2018-07-20T18:14:13.301Z,41.68
2018-07-20T18:16:42.669Z,41.19
2018-07-20T18:19:12.088Z,42.44
2018-07-20T18:21:42.021Z,41.58
2018-07-20T18:24:11.566Z,41.57
2018-07-20T18:26:40.909Z,42.05
2018-07-20T18:29:10.370Z,41.34
2018-07-20T18:31:39.772Z,41.52
2018-07-20T18:34:09.238Z,41.67
2018-07-20T18:36:38.845Z,42.24
2018-07-20T18:39:11.469Z,41.62
2018-07-20T18:41:41.518Z,42.99
2018-07-20T18:44:11.335Z,41.81
2018-07-20T18:46:40.838Z,42.34
2018-07-20T18:49:10.418Z,42.05
2018-07-20T18:51:39.745Z,42.24
2018-07-20T18:54:09.283Z,42.95
2018-07-20T18:56:38.883Z,43.09
2018-07-20T18:59:08.222Z,42.21
2018-07-20T19:01:37.569Z,42.21
2018-07-20T19:04:07.102Z,43.19
2018-07-20T19:06:36.423Z,43.15
2018-07-20T19:09:09.277Z,42.67
2018-07-20T19:11:38.730Z,43.82
2018-07-20T19:14:08.124Z,43.76
2018-07-20T19:16:37.661Z,43.37
2018-07-20T19:19:07.316Z,43.41
2018-07-20T19:21:36.614Z,42.37
2018-07-20T19:24:06.134Z,41.45
2018-07-20T19:26:35.497Z,41.15
2018-07-20T19:29:09.371Z,42.48
2018-07-20T19:31:38.673Z,41.35
2018-07-20T19:34:08.367Z,41.49
2018-07-20T19:36:37.713Z,42.43
2018-07-20T19:39:10.131Z,41.76
2018-07-20T19:41:39.557Z,42.05
2018-07-20T19:44:09.036Z,41.46
2018-07-20T19:46:38.424Z,41.18
2018-07-20T19:49:08.457Z,42.20
2018-07-20T19:51:38.166Z,41.18
2018-07-20T19:54:07.552Z,42.30
2018-07-20T19:56:36.945Z,42.87
2018-07-20T19:59:06.473Z,43.00
2018-07-20T20:01:35.856Z,43.01
2018-07-20T20:04:05.850Z,42.51
2018-07-20T20:06:35.231Z,42.45
2018-07-20T20:09:08.029Z,42.23
2018-07-20T20:11:37.554Z,42.37
2018-07-20T20:14:06.965Z,42.64
2018-07-20T20:16:36.976Z,43.11
2018-07-20T20:19:06.441Z,44.84
2018-07-20T20:21:35.958Z,46.60
2018-07-20T20:24:05.389Z,47.80
2018-07-20T20:26:35.097Z,49.58
2018-07-20T20:29:04.537Z,50.69
2018-07-20T20:31:33.996Z,50.50
2018-07-20T20:34:03.652Z,52.06
2018-07-20T20:36:33.139Z,54.02
2018-07-20T20:39:02.258Z,55.12
2018-07-20T20:41:31.944Z,52.67
2018-07-20T20:44:01.436Z,59.35
2018-07-20T20:46:30.757Z,60.54
2018-07-20T20:49:00.099Z,63.39
2018-07-20T20:51:29.594Z,63.47
2018-07-20T20:53:58.895Z,61.22
2018-07-20T20:56:28.289Z,63.81
2018-07-20T20:58:58.189Z,61.55
2018-07-20T21:01:27.631Z,65.20
2018-07-20T21:03:57.077Z,65.32
2018-07-20T21:06:26.594Z,65.56
2018-07-20T21:08:56.054Z,66.17
2018-07-20T21:11:25.419Z,64.65
2018-07-20T21:13:54.825Z,66.40
2018-07-20T21:16:24.458Z,64.93
2018-07-20T21:18:53.935Z,65.83
2018-07-20T21:21:23.262Z,67.48
2018-07-20T21:23:52.768Z,70.00
2018-07-20T21:26:22.126Z,70.37
2018-07-20T21:28:51.473Z,70.47
2018-07-20T21:31:21.217Z,70.92
2018-07-20T21:33:50.564Z,70.29
2018-07-20T21:36:20.014Z,69.55
2018-07-20T21:38:49.393Z,70.74
2018-07-20T21:41:18.741Z,70.65
2018-07-20T21:43:47.839Z,71.51
2018-07-20T21:46:18.149Z,69.98
2018-07-20T21:48:47.583Z,69.93
2018-07-20T21:51:16.913Z,70.59
2018-07-20T21:53:46.272Z,70.32
2018-07-20T21:56:15.619Z,70.88
2018-07-20T21:58:44.973Z,72.54
2018-07-20T22:01:14.321Z,71.45
2018-07-20T22:03:43.674Z,72.14
2018-07-20T22:06:13.042Z,72.41
2018-07-20T22:08:42.542Z,72.66
2018-07-20T22:11:11.967Z,73.56
2018-07-20T22:13:41.307Z,73.79
2018-07-20T22:16:10.733Z,75.09
2018-07-20T22:18:40.390Z,74.92
2018-07-20T22:21:09.754Z,75.24
2018-07-20T22:23:39.144Z,75.60
2018-07-20T22:26:08.498Z,73.91
2018-07-20T22:28:37.876Z,74.91
2018-07-20T22:31:07.765Z,74.55
2018-07-20T22:33:37.204Z,73.71
2018-07-20T22:36:06.810Z,73.97
2018-07-20T22:38:36.181Z,73.26
2018-07-20T22:41:05.522Z,71.80
2018-07-20T22:43:35.140Z,72.14
2018-07-20T22:46:04.525Z,72.05
2018-07-20T22:48:33.956Z,71.57
2018-07-20T22:51:03.328Z,71.70
2018-07-20T22:53:32.703Z,72.18
2018-07-20T22:56:02.743Z,72.67
2018-07-20T22:58:36.509Z,73.08
2018-07-20T23:01:06.363Z,73.52
2018-07-20T23:03:35.747Z,73.75
2018-07-20T23:06:05.121Z,72.96
2018-07-20T23:08:34.486Z,73.57
2018-07-20T23:11:03.903Z,72.57
2018-07-20T23:13:33.261Z,72.53
2018-07-20T23:16:02.649Z,72.60
2018-07-20T23:18:31.742Z,73.08
2018-07-20T23:21:00.968Z,72.64
2018-07-20T23:23:30.355Z,72.79
2018-07-20T23:25:59.735Z,72.54
2018-07-20T23:28:29.164Z,72.82
2018-07-20T23:30:58.570Z,73.22
2018-07-20T23:33:27.965Z,73.57
2018-07-20T23:35:57.367Z,73.08
2018-07-20T23:38:26.727Z,71.99
2018-07-20T23:40:56.089Z,71.87
2018-07-20T23:43:25.481Z,71.78
2018-07-20T23:45:54.909Z,71.70
2018-07-20T23:48:24.322Z,71.79
2018-07-20T23:50:53.698Z,71.75
2018-07-20T23:53:23.058Z,69.97
2018-07-20T23:55:52.362Z,70.69
2018-07-20T23:58:21.797Z,70.62
